sensor_id;sensor_type;location;lat;lon;timestamp;temperature;humidity
58933;DHT22;44716;51.022;6.818;2023-10-08T00:00:23;24.80;54.80
58933;DHT22;44716;51.022;6.818;2023-10-08T00:03:07;24.80;54.80
58933;DHT22;44716;51.022;6.818;2023-10-08T00:05:37;24.90;54.80
58933;DHT22;44716;51.022;6.818;2023-10-08T00:08:03;24.80;54.80
58933;DHT22;44716;51.022;6.818;2023-10-08T00:10:36;24.80;54.80
58933;DHT22;44716;51.022;6.818;2023-10-08T00:13:04;24.80;54.90
58933;DHT22;44716;51.022;6.818;2023-10-08T00:15:33;24.80;54.90
58933;DHT22;44716;51.022;6.818;2023-10-08T00:17:58;24.80;54.90
58933;DHT22;44716;51.022;6.818;2023-10-08T00:20:26;24.80;54.90
58933;DHT22;44716;51.022;6.818;2023-10-08T00:22:53;24.80;55.00
58933;DHT22;44716;51.022;6.818;2023-10-08T00:25:21;24.80;55.00
58933;DHT22;44716;51.022;6.818;2023-10-08T00:27:47;24.80;55.00
58933;DHT22;44716;51.022;6.818;2023-10-08T00:30:16;24.80;55.10
58933;DHT22;44716;51.022;6.818;2023-10-08T00:32:44;24.80;55.10
58933;DHT22;44716;51.022;6.818;2023-10-08T00:35:10;24.80;55.80
58933;DHT22;44716;51.022;6.818;2023-10-08T00:37:39;24.80;55.10
58933;DHT22;44716;51.022;6.818;2023-10-08T00:40:06;24.80;55.20
58933;DHT22;44716;51.022;6.818;2023-10-08T00:42:39;24.80;55.20
58933;DHT22;44716;51.022;6.818;2023-10-08T00:45:11;24.80;55.20
58933;DHT22;44716;51.022;6.818;2023-10-08T00:47:40;24.80;55.30
58933;DHT22;44716;51.022;6.818;2023-10-08T00:50:09;24.80;55.20
58933;DHT22;44716;51.022;6.818;2023-10-08T00:52:36;24.80;55.20
58933;DHT22;44716;51.022;6.818;2023-10-08T00:55:10;24.80;55.30
58933;DHT22;44716;51.022;6.818;2023-10-08T00:57:45;24.80;55.20
58933;DHT22;44716;51.022;6.818;2023-10-08T01:00:15;24.70;55.20
58933;DHT22;44716;51.022;6.818;2023-10-08T01:02:46;24.80;55.20
58933;DHT22;44716;51.022;6.818;2023-10-08T01:05:14;24.80;55.20
58933;DHT22;44716;51.022;6.818;2023-10-08T01:08:03;24.80;55.10
58933;DHT22;44716;51.022;6.818;2023-10-08T01:10:31;24.80;55.10
58933;DHT22;44716;51.022;6.818;2023-10-08T01:12:57;24.80;55.10
58933;DHT22;44716;51.022;6.818;2023-10-08T01:15:26;24.80;55.20
58933;DHT22;44716;51.022;6.818;2023-10-08T01:17:55;24.80;55.10
58933;DHT22;44716;51.022;6.818;2023-10-08T01:20:25;24.80;55.20
58933;DHT22;44716;51.022;6.818;2023-10-08T01:25:35;24.80;55.20
58933;DHT22;44716;51.022;6.818;2023-10-08T01:28:01;24.80;55.20
58933;DHT22;44716;51.022;6.818;2023-10-08T01:30:33;24.80;55.30
58933;DHT22;44716;51.022;6.818;2023-10-08T01:33:06;24.80;55.30
58933;DHT22;44716;51.022;6.818;2023-10-08T01:35:35;24.80;55.20
58933;DHT22;44716;51.022;6.818;2023-10-08T01:38:00;24.80;55.30
58933;DHT22;44716;51.022;6.818;2023-10-08T01:40:26;24.80;55.30
58933;DHT22;44716;51.022;6.818;2023-10-08T01:42:52;24.80;55.30
58933;DHT22;44716;51.022;6.818;2023-10-08T01:45:18;24.80;55.30
58933;DHT22;44716;51.022;6.818;2023-10-08T01:47:44;24.80;55.40
58933;DHT22;44716;51.022;6.818;2023-10-08T01:50:10;24.80;55.30
58933;DHT22;44716;51.022;6.818;2023-10-08T01:52:56;24.80;55.40
58933;DHT22;44716;51.022;6.818;2023-10-08T01:55:21;24.80;55.30
58933;DHT22;44716;51.022;6.818;2023-10-08T01:57:49;24.80;55.30
58933;DHT22;44716;51.022;6.818;2023-10-08T02:00:15;24.80;55.40
58933;DHT22;44716;51.022;6.818;2023-10-08T02:02:51;24.80;55.30
58933;DHT22;44716;51.022;6.818;2023-10-08T02:05:17;24.80;55.30
58933;DHT22;44716;51.022;6.818;2023-10-08T02:07:44;24.80;55.30
58933;DHT22;44716;51.022;6.818;2023-10-08T02:10:10;24.80;55.30
58933;DHT22;44716;51.022;6.818;2023-10-08T02:12:39;24.80;55.30
58933;DHT22;44716;51.022;6.818;2023-10-08T02:15:04;24.80;55.30
58933;DHT22;44716;51.022;6.818;2023-10-08T02:17:32;24.80;55.30
58933;DHT22;44716;51.022;6.818;2023-10-08T02:19:57;24.80;55.20
58933;DHT22;44716;51.022;6.818;2023-10-08T02:22:23;24.80;55.20
58933;DHT22;44716;51.022;6.818;2023-10-08T02:24:48;24.80;55.20
58933;DHT22;44716;51.022;6.818;2023-10-08T02:27:16;24.80;55.20
58933;DHT22;44716;51.022;6.818;2023-10-08T02:29:41;24.80;55.30
58933;DHT22;44716;51.022;6.818;2023-10-08T02:32:07;24.80;55.30
58933;DHT22;44716;51.022;6.818;2023-10-08T02:34:33;24.80;55.30
58933;DHT22;44716;51.022;6.818;2023-10-08T02:37:00;24.80;55.30
58933;DHT22;44716;51.022;6.818;2023-10-08T02:39:28;24.80;55.20
58933;DHT22;44716;51.022;6.818;2023-10-08T02:41:55;24.80;55.20
58933;DHT22;44716;51.022;6.818;2023-10-08T02:44:24;24.80;55.30
58933;DHT22;44716;51.022;6.818;2023-10-08T02:46:50;24.80;55.30
58933;DHT22;44716;51.022;6.818;2023-10-08T02:49:17;24.80;55.30
58933;DHT22;44716;51.022;6.818;2023-10-08T02:51:46;24.80;55.10
58933;DHT22;44716;51.022;6.818;2023-10-08T02:54:12;24.80;55.10
58933;DHT22;44716;51.022;6.818;2023-10-08T02:56:47;24.80;55.20
58933;DHT22;44716;51.022;6.818;2023-10-08T02:59:13;24.80;55.20
58933;DHT22;44716;51.022;6.818;2023-10-08T03:01:39;24.80;55.20
58933;DHT22;44716;51.022;6.818;2023-10-08T03:04:08;24.70;55.10
58933;DHT22;44716;51.022;6.818;2023-10-08T03:06:43;24.80;55.10
58933;DHT22;44716;51.022;6.818;2023-10-08T03:09:10;24.80;55.00
58933;DHT22;44716;51.022;6.818;2023-10-08T03:11:39;24.80;55.00
58933;DHT22;44716;51.022;6.818;2023-10-08T03:14:05;24.80;55.00
58933;DHT22;44716;51.022;6.818;2023-10-08T03:16:39;24.80;55.00
58933;DHT22;44716;51.022;6.818;2023-10-08T03:19:06;24.80;55.10
58933;DHT22;44716;51.022;6.818;2023-10-08T03:21:31;24.80;55.10
58933;DHT22;44716;51.022;6.818;2023-10-08T03:24:02;24.80;55.10
58933;DHT22;44716;51.022;6.818;2023-10-08T03:26:37;24.80;55.10
58933;DHT22;44716;51.022;6.818;2023-10-08T03:29:04;24.80;55.00
58933;DHT22;44716;51.022;6.818;2023-10-08T03:31:33;24.80;55.00
58933;DHT22;44716;51.022;6.818;2023-10-08T03:34:14;24.80;55.00
58933;DHT22;44716;51.022;6.818;2023-10-08T03:36:41;24.80;55.10
58933;DHT22;44716;51.022;6.818;2023-10-08T03:39:16;24.80;55.10
58933;DHT22;44716;51.022;6.818;2023-10-08T03:41:44;24.70;55.10
58933;DHT22;44716;51.022;6.818;2023-10-08T03:44:31;24.70;55.10
58933;DHT22;44716;51.022;6.818;2023-10-08T03:46:56;24.70;55.10
58933;DHT22;44716;51.022;6.818;2023-10-08T03:49:22;24.70;55.00
58933;DHT22;44716;51.022;6.818;2023-10-08T03:51:48;24.80;55.10
58933;DHT22;44716;51.022;6.818;2023-10-08T03:54:17;24.80;55.10
58933;DHT22;44716;51.022;6.818;2023-10-08T03:56:44;24.80;55.10
58933;DHT22;44716;51.022;6.818;2023-10-08T03:59:16;24.70;55.10
58933;DHT22;44716;51.022;6.818;2023-10-08T04:02:01;24.70;55.00
58933;DHT22;44716;51.022;6.818;2023-10-08T04:04:39;24.70;55.00
58933;DHT22;44716;51.022;6.818;2023-10-08T04:07:21;24.70;55.00
58933;DHT22;44716;51.022;6.818;2023-10-08T04:10:10;24.70;55.00
58933;DHT22;44716;51.022;6.818;2023-10-08T04:12:35;24.70;55.00
58933;DHT22;44716;51.022;6.818;2023-10-08T04:15:05;24.70;54.90
58933;DHT22;44716;51.022;6.818;2023-10-08T04:17:33;24.70;55.00
58933;DHT22;44716;51.022;6.818;2023-10-08T04:20:10;24.70;55.10
58933;DHT22;44716;51.022;6.818;2023-10-08T04:22:57;24.70;55.10
58933;DHT22;44716;51.022;6.818;2023-10-08T04:25:28;24.70;55.10
58933;DHT22;44716;51.022;6.818;2023-10-08T04:27:57;24.70;55.00
58933;DHT22;44716;51.022;6.818;2023-10-08T04:30:26;24.70;55.10
58933;DHT22;44716;51.022;6.818;2023-10-08T04:32:59;24.70;55.00
58933;DHT22;44716;51.022;6.818;2023-10-08T04:35:29;24.70;55.00
58933;DHT22;44716;51.022;6.818;2023-10-08T04:37:56;24.70;54.90
58933;DHT22;44716;51.022;6.818;2023-10-08T04:40:21;24.70;54.90
58933;DHT22;44716;51.022;6.818;2023-10-08T04:42:49;24.70;54.90
58933;DHT22;44716;51.022;6.818;2023-10-08T04:45:14;24.70;54.90
58933;DHT22;44716;51.022;6.818;2023-10-08T04:47:41;24.70;54.90
58933;DHT22;44716;51.022;6.818;2023-10-08T04:50:08;24.70;54.80
58933;DHT22;44716;51.022;6.818;2023-10-08T04:52:40;24.70;54.90
58933;DHT22;44716;51.022;6.818;2023-10-08T04:55:26;24.70;54.80
58933;DHT22;44716;51.022;6.818;2023-10-08T04:57:55;24.70;54.70
58933;DHT22;44716;51.022;6.818;2023-10-08T05:00:21;24.70;54.70
58933;DHT22;44716;51.022;6.818;2023-10-08T05:03:06;24.70;54.70
58933;DHT22;44716;51.022;6.818;2023-10-08T05:05:42;24.70;54.70
58933;DHT22;44716;51.022;6.818;2023-10-08T05:08:46;24.70;54.60
58933;DHT22;44716;51.022;6.818;2023-10-08T05:11:24;24.70;54.60
58933;DHT22;44716;51.022;6.818;2023-10-08T05:14:08;24.70;54.60
58933;DHT22;44716;51.022;6.818;2023-10-08T05:16:42;24.70;54.70
58933;DHT22;44716;51.022;6.818;2023-10-08T05:19:26;24.70;54.70
58933;DHT22;44716;51.022;6.818;2023-10-08T05:22:10;24.70;54.70
58933;DHT22;44716;51.022;6.818;2023-10-08T05:24:57;24.70;54.60
58933;DHT22;44716;51.022;6.818;2023-10-08T05:27:42;24.70;54.70
58933;DHT22;44716;51.022;6.818;2023-10-08T05:32:56;24.70;54.80
58933;DHT22;44716;51.022;6.818;2023-10-08T05:35:28;24.70;55.30
58933;DHT22;44716;51.022;6.818;2023-10-08T05:38:06;24.70;54.70
58933;DHT22;44716;51.022;6.818;2023-10-08T05:41:01;24.70;54.80
58933;DHT22;44716;51.022;6.818;2023-10-08T05:43:27;24.70;54.80
58933;DHT22;44716;51.022;6.818;2023-10-08T05:46:02;24.70;54.80
58933;DHT22;44716;51.022;6.818;2023-10-08T05:48:46;24.70;54.80
58933;DHT22;44716;51.022;6.818;2023-10-08T05:51:26;24.60;54.80
58933;DHT22;44716;51.022;6.818;2023-10-08T05:54:14;24.70;54.90
58933;DHT22;44716;51.022;6.818;2023-10-08T05:56:58;24.70;54.80
58933;DHT22;44716;51.022;6.818;2023-10-08T06:02:30;24.60;54.90
58933;DHT22;44716;51.022;6.818;2023-10-08T06:05:02;24.70;54.90
58933;DHT22;44716;51.022;6.818;2023-10-08T06:07:44;24.70;54.90
58933;DHT22;44716;51.022;6.818;2023-10-08T06:10:18;24.70;54.90
58933;DHT22;44716;51.022;6.818;2023-10-08T06:15:47;24.60;55.00
58933;DHT22;44716;51.022;6.818;2023-10-08T06:23:26;24.70;55.10
58933;DHT22;44716;51.022;6.818;2023-10-08T06:25:53;24.70;55.10
58933;DHT22;44716;51.022;6.818;2023-10-08T06:28:20;24.70;55.20
58933;DHT22;44716;51.022;6.818;2023-10-08T06:30:46;24.70;55.10
58933;DHT22;44716;51.022;6.818;2023-10-08T06:33:12;24.70;55.10
58933;DHT22;44716;51.022;6.818;2023-10-08T06:35:38;24.60;55.10
58933;DHT22;44716;51.022;6.818;2023-10-08T06:38:10;24.60;55.10
58933;DHT22;44716;51.022;6.818;2023-10-08T06:40:36;24.60;55.10
58933;DHT22;44716;51.022;6.818;2023-10-08T06:43:01;24.70;55.10
58933;DHT22;44716;51.022;6.818;2023-10-08T06:45:45;24.70;55.10
58933;DHT22;44716;51.022;6.818;2023-10-08T06:48:13;24.60;55.00
58933;DHT22;44716;51.022;6.818;2023-10-08T06:50:44;24.70;55.00
58933;DHT22;44716;51.022;6.818;2023-10-08T06:53:10;24.70;55.00
58933;DHT22;44716;51.022;6.818;2023-10-08T06:55:42;24.60;55.10
58933;DHT22;44716;51.022;6.818;2023-10-08T06:58:07;24.60;55.10
58933;DHT22;44716;51.022;6.818;2023-10-08T07:00:35;24.60;55.10
58933;DHT22;44716;51.022;6.818;2023-10-08T07:03:14;24.70;55.10
58933;DHT22;44716;51.022;6.818;2023-10-08T07:05:44;24.60;55.00
58933;DHT22;44716;51.022;6.818;2023-10-08T07:08:22;24.60;55.10
58933;DHT22;44716;51.022;6.818;2023-10-08T07:10:49;24.70;55.10
58933;DHT22;44716;51.022;6.818;2023-10-08T07:13:14;24.70;55.10
58933;DHT22;44716;51.022;6.818;2023-10-08T07:15:45;24.70;55.00
58933;DHT22;44716;51.022;6.818;2023-10-08T07:18:11;24.70;55.10
58933;DHT22;44716;51.022;6.818;2023-10-08T07:20:40;24.70;55.00
58933;DHT22;44716;51.022;6.818;2023-10-08T07:23:11;24.70;55.00
58933;DHT22;44716;51.022;6.818;2023-10-08T07:26:03;24.70;55.00
58933;DHT22;44716;51.022;6.818;2023-10-08T07:28:38;24.70;55.00
58933;DHT22;44716;51.022;6.818;2023-10-08T07:31:06;24.70;54.90
58933;DHT22;44716;51.022;6.818;2023-10-08T07:33:35;24.60;55.00
58933;DHT22;44716;51.022;6.818;2023-10-08T07:36:01;24.70;55.00
58933;DHT22;44716;51.022;6.818;2023-10-08T07:38:40;24.70;55.00
58933;DHT22;44716;51.022;6.818;2023-10-08T07:41:11;24.70;55.00
58933;DHT22;44716;51.022;6.818;2023-10-08T07:43:40;24.70;55.10
58933;DHT22;44716;51.022;6.818;2023-10-08T07:46:10;24.60;55.00
58933;DHT22;44716;51.022;6.818;2023-10-08T07:48:36;24.60;55.00
58933;DHT22;44716;51.022;6.818;2023-10-08T07:51:01;24.60;55.00
58933;DHT22;44716;51.022;6.818;2023-10-08T07:53:28;24.60;55.00
58933;DHT22;44716;51.022;6.818;2023-10-08T07:56:03;24.60;55.00
58933;DHT22;44716;51.022;6.818;2023-10-08T07:58:32;24.60;55.00
58933;DHT22;44716;51.022;6.818;2023-10-08T08:01:02;24.70;55.00
58933;DHT22;44716;51.022;6.818;2023-10-08T08:03:31;24.60;55.00
58933;DHT22;44716;51.022;6.818;2023-10-08T08:05:57;24.60;55.00
58933;DHT22;44716;51.022;6.818;2023-10-08T08:08:24;24.60;55.10
58933;DHT22;44716;51.022;6.818;2023-10-08T08:10:52;24.60;55.10
58933;DHT22;44716;51.022;6.818;2023-10-08T08:13:23;24.60;55.10
58933;DHT22;44716;51.022;6.818;2023-10-08T08:15:53;24.60;55.10
58933;DHT22;44716;51.022;6.818;2023-10-08T08:18:26;24.60;55.10
58933;DHT22;44716;51.022;6.818;2023-10-08T08:20:58;24.60;55.10
58933;DHT22;44716;51.022;6.818;2023-10-08T08:23:28;24.60;55.10
58933;DHT22;44716;51.022;6.818;2023-10-08T08:25:53;24.60;55.20
58933;DHT22;44716;51.022;6.818;2023-10-08T08:28:34;24.60;55.10
58933;DHT22;44716;51.022;6.818;2023-10-08T08:31:03;24.60;55.10
58933;DHT22;44716;51.022;6.818;2023-10-08T08:33:39;24.60;55.70
58933;DHT22;44716;51.022;6.818;2023-10-08T08:36:23;24.60;55.10
58933;DHT22;44716;51.022;6.818;2023-10-08T08:38:48;24.60;55.10
58933;DHT22;44716;51.022;6.818;2023-10-08T08:41:14;24.60;55.70
58933;DHT22;44716;51.022;6.818;2023-10-08T08:43:53;24.70;55.10
58933;DHT22;44716;51.022;6.818;2023-10-08T08:48:52;24.60;55.10
58933;DHT22;44716;51.022;6.818;2023-10-08T08:51:19;24.60;55.10
58933;DHT22;44716;51.022;6.818;2023-10-08T08:53:47;24.60;55.50
58933;DHT22;44716;51.022;6.818;2023-10-08T08:56:13;24.60;55.20
58933;DHT22;44716;51.022;6.818;2023-10-08T08:58:38;24.60;55.20
58933;DHT22;44716;51.022;6.818;2023-10-08T09:01:07;24.60;55.20
58933;DHT22;44716;51.022;6.818;2023-10-08T09:03:38;24.60;55.10
58933;DHT22;44716;51.022;6.818;2023-10-08T09:06:04;24.60;55.20
58933;DHT22;44716;51.022;6.818;2023-10-08T09:08:37;24.60;55.20
58933;DHT22;44716;51.022;6.818;2023-10-08T09:11:03;24.60;55.20
58933;DHT22;44716;51.022;6.818;2023-10-08T09:13:34;24.60;55.30
58933;DHT22;44716;51.022;6.818;2023-10-08T09:16:07;24.60;55.20
58933;DHT22;44716;51.022;6.818;2023-10-08T09:18:32;24.60;55.20
58933;DHT22;44716;51.022;6.818;2023-10-08T09:21:08;24.60;55.20
58933;DHT22;44716;51.022;6.818;2023-10-08T09:23:39;24.60;55.30
58933;DHT22;44716;51.022;6.818;2023-10-08T09:26:09;24.60;55.10
58933;DHT22;44716;51.022;6.818;2023-10-08T09:28:34;24.70;55.20
58933;DHT22;44716;51.022;6.818;2023-10-08T09:31:02;24.80;55.30
58933;DHT22;44716;51.022;6.818;2023-10-08T09:33:30;24.90;54.90
58933;DHT22;44716;51.022;6.818;2023-10-08T09:35:55;24.90;54.80
58933;DHT22;44716;51.022;6.818;2023-10-08T09:38:28;24.90;54.80
58933;DHT22;44716;51.022;6.818;2023-10-08T09:40:55;24.90;54.80
58933;DHT22;44716;51.022;6.818;2023-10-08T09:43:21;24.90;54.70
58933;DHT22;44716;51.022;6.818;2023-10-08T09:45:48;24.90;54.30
58933;DHT22;44716;51.022;6.818;2023-10-08T09:48:17;24.80;53.70
58933;DHT22;44716;51.022;6.818;2023-10-08T09:50:44;24.90;54.20
58933;DHT22;44716;51.022;6.818;2023-10-08T09:53:11;24.90;54.00
58933;DHT22;44716;51.022;6.818;2023-10-08T09:55:57;24.90;54.10
58933;DHT22;44716;51.022;6.818;2023-10-08T09:58:23;24.90;54.00
58933;DHT22;44716;51.022;6.818;2023-10-08T10:00:49;25.00;53.80
58933;DHT22;44716;51.022;6.818;2023-10-08T10:03:16;25.10;53.60
58933;DHT22;44716;51.022;6.818;2023-10-08T10:05:44;25.10;53.50
58933;DHT22;44716;51.022;6.818;2023-10-08T10:08:10;25.10;53.50
58933;DHT22;44716;51.022;6.818;2023-10-08T10:10:36;25.20;53.40
58933;DHT22;44716;51.022;6.818;2023-10-08T10:13:06;25.10;53.50
58933;DHT22;44716;51.022;6.818;2023-10-08T10:15:37;25.10;53.60
58933;DHT22;44716;51.022;6.818;2023-10-08T10:18:12;25.20;53.40
58933;DHT22;44716;51.022;6.818;2023-10-08T10:20:51;25.20;53.40
58933;DHT22;44716;51.022;6.818;2023-10-08T10:26:02;25.20;53.30
58933;DHT22;44716;51.022;6.818;2023-10-08T10:28:28;25.10;53.00
58933;DHT22;44716;51.022;6.818;2023-10-08T10:30:55;25.10;52.90
58933;DHT22;44716;51.022;6.818;2023-10-08T10:33:21;25.00;52.90
58933;DHT22;44716;51.022;6.818;2023-10-08T10:35:53;25.00;53.20
58933;DHT22;44716;51.022;6.818;2023-10-08T10:38:19;25.10;53.10
58933;DHT22;44716;51.022;6.818;2023-10-08T10:40:48;25.20;53.20
58933;DHT22;44716;51.022;6.818;2023-10-08T10:43:25;25.40;53.20
58933;DHT22;44716;51.022;6.818;2023-10-08T10:46:01;25.40;52.90
58933;DHT22;44716;51.022;6.818;2023-10-08T10:48:49;25.40;53.10
58933;DHT22;44716;51.022;6.818;2023-10-08T10:51:30;25.50;52.70
58933;DHT22;44716;51.022;6.818;2023-10-08T10:53:55;25.60;52.80
58933;DHT22;44716;51.022;6.818;2023-10-08T10:56:26;25.70;52.80
58933;DHT22;44716;51.022;6.818;2023-10-08T10:59:02;25.70;52.60
58933;DHT22;44716;51.022;6.818;2023-10-08T11:01:40;25.70;52.70
58933;DHT22;44716;51.022;6.818;2023-10-08T11:04:15;25.70;52.70
58933;DHT22;44716;51.022;6.818;2023-10-08T11:06:45;25.70;52.70
58933;DHT22;44716;51.022;6.818;2023-10-08T11:09:12;25.70;52.50
58933;DHT22;44716;51.022;6.818;2023-10-08T11:11:57;25.70;52.60
58933;DHT22;44716;51.022;6.818;2023-10-08T11:14:25;25.80;52.40
58933;DHT22;44716;51.022;6.818;2023-10-08T11:16:50;25.90;52.30
58933;DHT22;44716;51.022;6.818;2023-10-08T11:19:19;25.90;52.40
58933;DHT22;44716;51.022;6.818;2023-10-08T11:21:48;25.80;52.30
58933;DHT22;44716;51.022;6.818;2023-10-08T11:24:14;25.80;52.40
58933;DHT22;44716;51.022;6.818;2023-10-08T11:26:50;25.80;52.40
58933;DHT22;44716;51.022;6.818;2023-10-08T11:29:32;25.80;52.60
58933;DHT22;44716;51.022;6.818;2023-10-08T11:31:59;25.80;52.50
58933;DHT22;44716;51.022;6.818;2023-10-08T11:34:32;25.90;52.60
58933;DHT22;44716;51.022;6.818;2023-10-08T11:37:04;25.70;52.80
58933;DHT22;44716;51.022;6.818;2023-10-08T11:39:39;25.80;53.00
58933;DHT22;44716;51.022;6.818;2023-10-08T11:42:10;25.70;52.90
58933;DHT22;44716;51.022;6.818;2023-10-08T11:45:11;25.70;52.90
58933;DHT22;44716;51.022;6.818;2023-10-08T11:47:49;25.60;53.20
58933;DHT22;44716;51.022;6.818;2023-10-08T11:50:15;25.50;53.00
58933;DHT22;44716;51.022;6.818;2023-10-08T11:52:46;25.50;52.70
58933;DHT22;44716;51.022;6.818;2023-10-08T11:55:12;25.40;52.40
58933;DHT22;44716;51.022;6.818;2023-10-08T11:57:45;25.40;52.50
58933;DHT22;44716;51.022;6.818;2023-10-08T12:00:13;25.40;52.40
58933;DHT22;44716;51.022;6.818;2023-10-08T12:02:46;25.40;52.60
58933;DHT22;44716;51.022;6.818;2023-10-08T12:05:11;25.40;52.20
58933;DHT22;44716;51.022;6.818;2023-10-08T12:07:49;25.40;52.20
58933;DHT22;44716;51.022;6.818;2023-10-08T12:10:16;25.40;52.10
58933;DHT22;44716;51.022;6.818;2023-10-08T12:12:42;25.40;52.20
58933;DHT22;44716;51.022;6.818;2023-10-08T12:15:09;25.40;52.10
58933;DHT22;44716;51.022;6.818;2023-10-08T12:17:35;25.30;52.00
58933;DHT22;44716;51.022;6.818;2023-10-08T12:20:07;25.30;52.20
58933;DHT22;44716;51.022;6.818;2023-10-08T12:22:49;25.30;52.10
58933;DHT22;44716;51.022;6.818;2023-10-08T12:25:15;25.30;52.00
58933;DHT22;44716;51.022;6.818;2023-10-08T12:27:40;25.30;52.10
58933;DHT22;44716;51.022;6.818;2023-10-08T12:30:06;25.40;52.10
58933;DHT22;44716;51.022;6.818;2023-10-08T12:32:38;25.30;52.30
58933;DHT22;44716;51.022;6.818;2023-10-08T12:35:10;25.20;52.50
58933;DHT22;44716;51.022;6.818;2023-10-08T12:37:40;25.20;52.50
58933;DHT22;44716;51.022;6.818;2023-10-08T12:40:06;25.20;52.60
58933;DHT22;44716;51.022;6.818;2023-10-08T12:42:51;25.30;52.60
58933;DHT22;44716;51.022;6.818;2023-10-08T12:45:16;25.30;52.60
58933;DHT22;44716;51.022;6.818;2023-10-08T12:47:46;25.30;52.50
58933;DHT22;44716;51.022;6.818;2023-10-08T12:50:12;25.40;52.60
58933;DHT22;44716;51.022;6.818;2023-10-08T12:52:42;25.40;52.50
58933;DHT22;44716;51.022;6.818;2023-10-08T12:55:12;25.40;52.40
58933;DHT22;44716;51.022;6.818;2023-10-08T12:57:38;25.50;52.50
58933;DHT22;44716;51.022;6.818;2023-10-08T13:00:06;25.50;52.40
58933;DHT22;44716;51.022;6.818;2023-10-08T13:02:33;25.60;52.40
58933;DHT22;44716;51.022;6.818;2023-10-08T13:05:04;25.60;52.30
58933;DHT22;44716;51.022;6.818;2023-10-08T13:07:40;25.70;52.20
58933;DHT22;44716;51.022;6.818;2023-10-08T13:10:08;25.70;52.20
58933;DHT22;44716;51.022;6.818;2023-10-08T13:12:36;25.70;52.20
58933;DHT22;44716;51.022;6.818;2023-10-08T13:15:02;25.70;52.10
58933;DHT22;44716;51.022;6.818;2023-10-08T13:17:31;25.70;52.20
58933;DHT22;44716;51.022;6.818;2023-10-08T13:19:57;25.70;52.20
58933;DHT22;44716;51.022;6.818;2023-10-08T13:22:22;25.70;52.30
58933;DHT22;44716;51.022;6.818;2023-10-08T13:24:49;25.60;52.40
58933;DHT22;44716;51.022;6.818;2023-10-08T13:27:15;25.60;52.60
58933;DHT22;44716;51.022;6.818;2023-10-08T13:29:41;25.60;52.70
58933;DHT22;44716;51.022;6.818;2023-10-08T13:32:09;25.60;52.70
58933;DHT22;44716;51.022;6.818;2023-10-08T13:34:43;25.60;52.70
58933;DHT22;44716;51.022;6.818;2023-10-08T13:37:08;25.70;52.80
58933;DHT22;44716;51.022;6.818;2023-10-08T13:39:34;25.60;52.70
58933;DHT22;44716;51.022;6.818;2023-10-08T13:42:02;25.50;53.00
58933;DHT22;44716;51.022;6.818;2023-10-08T13:44:28;25.50;53.00
58933;DHT22;44716;51.022;6.818;2023-10-08T13:46:59;25.50;53.00
58933;DHT22;44716;51.022;6.818;2023-10-08T13:49:25;25.50;52.90
58933;DHT22;44716;51.022;6.818;2023-10-08T13:51:57;25.40;53.10
58933;DHT22;44716;51.022;6.818;2023-10-08T13:54:23;25.40;53.10
58933;DHT22;44716;51.022;6.818;2023-10-08T13:56:57;25.40;53.40
58933;DHT22;44716;51.022;6.818;2023-10-08T13:59:23;25.40;53.60
58933;DHT22;44716;51.022;6.818;2023-10-08T14:01:50;25.40;53.60
58933;DHT22;44716;51.022;6.818;2023-10-08T14:04:20;25.50;53.30
58933;DHT22;44716;51.022;6.818;2023-10-08T14:06:46;25.50;53.10
58933;DHT22;44716;51.022;6.818;2023-10-08T14:09:18;25.50;53.30
58933;DHT22;44716;51.022;6.818;2023-10-08T14:12:02;25.60;53.20
58933;DHT22;44716;51.022;6.818;2023-10-08T14:14:28;25.60;53.20
58933;DHT22;44716;51.022;6.818;2023-10-08T14:16:55;25.50;53.20
58933;DHT22;44716;51.022;6.818;2023-10-08T14:19:25;25.50;53.30
58933;DHT22;44716;51.022;6.818;2023-10-08T14:22:04;25.50;53.20
58933;DHT22;44716;51.022;6.818;2023-10-08T14:24:30;25.50;53.40
58933;DHT22;44716;51.022;6.818;2023-10-08T14:27:00;25.50;53.20
58933;DHT22;44716;51.022;6.818;2023-10-08T14:29:29;25.50;53.10
58933;DHT22;44716;51.022;6.818;2023-10-08T14:31:54;25.60;53.20
58933;DHT22;44716;51.022;6.818;2023-10-08T14:34:22;25.60;53.10
58933;DHT22;44716;51.022;6.818;2023-10-08T14:37:06;25.60;53.10
58933;DHT22;44716;51.022;6.818;2023-10-08T14:39:51;25.60;53.20
58933;DHT22;44716;51.022;6.818;2023-10-08T14:42:35;25.60;53.20
58933;DHT22;44716;51.022;6.818;2023-10-08T14:45:27;25.60;53.30
58933;DHT22;44716;51.022;6.818;2023-10-08T14:47:56;25.50;53.40
58933;DHT22;44716;51.022;6.818;2023-10-08T14:50:23;25.50;53.50
58933;DHT22;44716;51.022;6.818;2023-10-08T14:52:48;25.60;53.50
58933;DHT22;44716;51.022;6.818;2023-10-08T14:55:15;25.60;53.30
58933;DHT22;44716;51.022;6.818;2023-10-08T14:57:41;25.60;53.30
58933;DHT22;44716;51.022;6.818;2023-10-08T15:00:07;25.70;53.30
58933;DHT22;44716;51.022;6.818;2023-10-08T15:02:34;25.70;53.20
58933;DHT22;44716;51.022;6.818;2023-10-08T15:04:59;25.70;53.20
58933;DHT22;44716;51.022;6.818;2023-10-08T15:07:26;25.70;53.20
58933;DHT22;44716;51.022;6.818;2023-10-08T15:09:56;25.70;53.20
58933;DHT22;44716;51.022;6.818;2023-10-08T15:12:23;25.60;53.30
58933;DHT22;44716;51.022;6.818;2023-10-08T15:14:51;25.50;53.30
58933;DHT22;44716;51.022;6.818;2023-10-08T15:17:16;25.60;53.20
58933;DHT22;44716;51.022;6.818;2023-10-08T15:19:42;25.60;53.60
58933;DHT22;44716;51.022;6.818;2023-10-08T15:22:08;25.50;53.60
58933;DHT22;44716;51.022;6.818;2023-10-08T15:24:33;25.60;54.00
58933;DHT22;44716;51.022;6.818;2023-10-08T15:27:02;25.70;53.80
58933;DHT22;44716;51.022;6.818;2023-10-08T15:29:27;25.70;53.80
58933;DHT22;44716;51.022;6.818;2023-10-08T15:31:53;25.70;53.80
58933;DHT22;44716;51.022;6.818;2023-10-08T15:34:23;25.70;53.70
58933;DHT22;44716;51.022;6.818;2023-10-08T15:36:49;25.70;54.30
58933;DHT22;44716;51.022;6.818;2023-10-08T15:39:15;25.70;53.70
58933;DHT22;44716;51.022;6.818;2023-10-08T15:41:51;25.80;53.70
58933;DHT22;44716;51.022;6.818;2023-10-08T15:44:17;25.70;53.70
58933;DHT22;44716;51.022;6.818;2023-10-08T15:46:46;25.70;53.70
58933;DHT22;44716;51.022;6.818;2023-10-08T15:49:11;25.80;53.80
58933;DHT22;44716;51.022;6.818;2023-10-08T15:51:38;25.80;53.80
58933;DHT22;44716;51.022;6.818;2023-10-08T15:54:03;25.80;53.80
58933;DHT22;44716;51.022;6.818;2023-10-08T15:56:29;25.80;53.80
58933;DHT22;44716;51.022;6.818;2023-10-08T15:58:55;25.70;53.80
58933;DHT22;44716;51.022;6.818;2023-10-08T16:01:21;25.70;53.80
58933;DHT22;44716;51.022;6.818;2023-10-08T16:03:47;25.70;53.80
58933;DHT22;44716;51.022;6.818;2023-10-08T16:06:12;25.70;53.90
58933;DHT22;44716;51.022;6.818;2023-10-08T16:08:38;25.70;54.00
58933;DHT22;44716;51.022;6.818;2023-10-08T16:11:03;25.70;53.90